Archival Weather

Joint Base Andrews

Camp Springs, Maryland (KADW)

Report from: Tuesday, February 27, 2024 5:01 PM EST
Current time: Wednesday, May 29, 2024 8:19 PM EDT

Current weather – Weather history – Daily summaries
Weather forecast

Temperature15.0°C (59.0°F)
Dew point10.0°C (50.0°F)
Winds 18 kts (9.3 m/s, 20.7 mph) South (190°)
Wind gusts 27 kts (13.9 m/s, 31.1 mph)
Visibility10 mi. (16.1 km)
Clouds Ceiling: Overcast 2,500 ft. (762 m)
Altimeter29.81 in.Hg (1009 mB)
Relative humidity72 %
Density altitude277 ft. (85 m)
Sea-level pressure101.0 kPa (1010 mB, 29.83 in.Hg)
Remarks System requires maintenance
Special weather observation
Ceiling
Flight conditions Marginal Visual Meteorological Conditions
Raw dataSPXX60 KWBC 272208 SPECI KADW 272201Z 19018G27KT 10SM OVC025 15/10 A2981 RMK CIG 024 RWY19L SLP102 $
An error has occurred. This application may no longer respond until reloaded. Reload 🗙